Time;durP1;ratioP1;P1;durP2;ratioP2;P2;SDS_P1;SDS_P2;PMS_P1;PMS_P2;Temp;Humidity;BMP_temperature;BMP_pressure;BME280_temperature;BME280_humidity;BME280_pressure;Samples;Min_cycle;Max_cycle;Signal;HPM_P1;HPM_P2
2022/05/18 00:00:56;;;;;;;9.93;6.13;;;16.80;99.90;;;;;;5053713;28;20036;-45
2022/05/18 00:03:30;;;;;;;9.30;5.68;;;16.70;99.90;;;;;;5049636;28;20510;-46
2022/05/18 00:05:59;;;;;;;8.60;5.25;;;16.70;99.90;;;;;;5052960;28;20041;-46
2022/05/18 00:08:25;;;;;;;11.45;5.50;;;16.70;99.90;;;;;;5050426;28;20064;-46
2022/05/18 00:10:51;;;;;;;7.30;5.40;;;16.70;99.90;;;;;;5059984;28;20457;-45
2022/05/18 00:13:17;;;;;;;9.57;6.20;;;16.60;99.90;;;;;;5062651;28;20065;-46
2022/05/18 00:15:44;;;;;;;9.40;5.85;;;16.60;99.90;;;;;;5059464;28;20123;-45
2022/05/18 00:18:10;;;;;;;6.53;5.18;;;16.60;99.90;;;;;;5068306;28;20044;-45
2022/05/18 00:20:36;;;;;;;7.72;5.03;;;16.60;99.90;;;;;;5058174;28;20048;-46
2022/05/18 00:23:04;;;;;;;7.85;6.03;;;16.60;99.90;;;;;;5060403;28;20051;-45
2022/05/18 00:25:32;;;;;;;9.50;5.38;;;16.50;99.90;;;;;;5057349;28;20079;-46
2022/05/18 00:27:58;;;;;;;10.07;5.47;;;16.50;99.90;;;;;;5057183;28;20075;-45
2022/05/18 00:30:26;;;;;;;12.00;6.35;;;16.50;99.90;;;;;;5061628;28;20076;-45
2022/05/18 00:32:52;;;;;;;10.15;6.30;;;16.50;99.90;;;;;;5067923;28;20532;-45
2022/05/18 00:35:18;;;;;;;13.57;5.32;;;16.50;99.90;;;;;;5064375;28;20072;-45
2022/05/18 00:37:44;;;;;;;;;;;16.40;99.90;;;;;;5066789;28;20041;-46
2022/05/18 00:40:12;;;;;;;8.02;5.00;;;16.40;99.90;;;;;;5062211;28;20508;-45
2022/05/18 00:42:38;;;;;;;10.82;5.43;;;16.30;99.90;;;;;;5055344;28;20037;-45
2022/05/18 00:45:06;;;;;;;11.32;5.43;;;16.30;99.90;;;;;;5051359;28;20094;-46
2022/05/18 00:47:31;;;;;;;11.20;5.22;;;16.30;99.90;;;;;;5050167;28;20037;-46
2022/05/18 00:50:02;;;;;;;10.43;5.75;;;16.30;99.90;;;;;;5066106;28;20040;-45
2022/05/18 00:52:34;;;;;;;10.55;5.05;;;16.20;99.90;;;;;;5060637;28;20489;-45
2022/05/18 00:55:01;;;;;;;6.68;4.43;;;16.20;99.90;;;;;;5060043;28;20502;-46
2022/05/18 00:57:33;;;;;;;8.43;5.15;;;16.20;99.90;;;;;;5063643;28;20045;-45
2022/05/18 01:00:10;;;;;;;7.65;5.25;;;16.20;99.90;;;;;;5049604;28;20123;-45
2022/05/18 01:02:39;;;;;;;8.10;5.18;;;16.10;99.90;;;;;;5053349;28;20041;-45
2022/05/18 01:05:10;;;;;;;7.43;5.07;;;16.10;99.90;;;;;;5068581;28;20040;-46
2022/05/18 01:07:45;;;;;;;7.35;4.82;;;16.20;99.90;;;;;;5057637;28;20505;-45
2022/05/18 01:10:10;;;;;;;10.70;5.25;;;16.10;99.90;;;;;;5064272;28;20047;-45
2022/05/18 01:12:36;;;;;;;6.45;4.80;;;16.10;99.90;;;;;;5065598;28;20037;-45
2022/05/18 01:15:07;;;;;;;7.82;5.38;;;16.10;99.90;;;;;;5059522;28;20039;-46
2022/05/18 01:17:37;;;;;;;7.68;5.03;;;16.00;99.90;;;;;;5070022;28;20047;-47
2022/05/18 01:20:10;;;;;;;5.85;4.68;;;16.00;99.90;;;;;;5062998;28;20048;-46
2022/05/18 01:23:09;;;;;;;10.30;5.57;;;16.00;99.90;;;;;;5058587;28;20033;-45
2022/05/18 01:25:50;;;;;;;9.27;5.25;;;16.00;99.90;;;;;;5067659;28;20615;-45
2022/05/18 01:28:15;;;;;;;10.73;5.88;;;16.00;99.90;;;;;;5069506;28;20033;-45
2022/05/18 01:30:46;;;;;;;7.70;4.72;;;16.00;99.90;;;;;;5069477;28;20033;-46
2022/05/18 01:33:13;;;;;;;7.38;4.82;;;16.00;99.90;;;;;;5069043;28;20043;-45
2022/05/18 01:35:41;;;;;;;7.32;4.63;;;16.00;99.90;;;;;;5069088;28;20032;-45
2022/05/18 01:38:07;;;;;;;6.13;5.45;;;16.00;99.90;;;;;;5056327;28;20041;-45
2022/05/18 01:40:44;;;;;;;;;;;15.90;99.90;;;;;;5063073;28;20037;-45
2022/05/18 01:43:21;;;;;;;5.68;4.35;;;15.90;99.90;;;;;;5069304;28;19975;-44
2022/05/18 01:45:52;;;;;;;10.15;5.35;;;15.90;99.90;;;;;;5063628;28;20049;-44
2022/05/18 01:48:24;;;;;;;8.23;5.57;;;15.90;99.90;;;;;;5052834;28;20029;-45
2022/05/18 01:50:50;;;;;;;9.75;5.53;;;15.80;99.90;;;;;;5060637;28;20032;-45
2022/05/18 01:53:16;;;;;;;7.22;5.68;;;15.80;99.90;;;;;;5071979;28;20120;-45
2022/05/18 01:55:43;;;;;;;7.75;5.25;;;15.70;99.90;;;;;;5065159;28;20132;-45
2022/05/18 01:58:12;;;;;;;6.93;5.20;;;15.70;99.90;;;;;;5052642;28;20047;-45
2022/05/18 02:00:38;;;;;;;6.95;5.22;;;15.70;99.90;;;;;;5056993;28;20123;-46
2022/05/18 02:03:03;;;;;;;9.30;6.20;;;15.70;99.90;;;;;;5071780;28;20044;-46
2022/05/18 02:05:29;;;;;;;9.10;5.53;;;15.70;99.90;;;;;;5066231;28;20049;-45
2022/05/18 02:07:57;;;;;;;10.55;5.93;;;15.60;99.90;;;;;;5052143;28;20117;-46
2022/05/18 02:10:23;;;;;;;10.00;6.78;;;15.60;99.90;;;;;;5055582;28;20033;-44
2022/05/18 02:12:48;;;;;;;;;;;15.60;99.90;;;;;;5069827;28;20486;-45
2022/05/18 02:15:14;;;;;;;11.77;6.38;;;15.50;99.90;;;;;;5065577;28;19967;-45
2022/05/18 02:17:40;;;;;;;7.55;5.38;;;15.50;99.90;;;;;;5059495;28;20039;-45
2022/05/18 02:20:06;;;;;;;9.25;6.90;;;15.50;99.90;;;;;;5058696;28;20041;-46
2022/05/18 02:22:32;;;;;;;9.35;6.25;;;15.50;99.90;;;;;;5061336;28;20045;-47
2022/05/18 02:24:57;;;;;;;13.52;6.50;;;15.50;99.90;;;;;;5055841;28;20036;-45
2022/05/18 02:27:23;;;;;;;7.55;5.82;;;15.50;99.90;;;;;;5062421;28;20457;-45
2022/05/18 02:29:50;;;;;;;8.02;6.10;;;15.50;99.90;;;;;;5053535;28;20497;-45
2022/05/18 02:32:16;;;;;;;8.50;6.50;;;15.50;99.90;;;;;;5064850;28;20037;-46
2022/05/18 02:34:42;;;;;;;9.55;7.20;;;15.40;99.90;;;;;;5053003;28;20029;-44
2022/05/18 02:37:07;;;;;;;13.10;5.97;;;15.40;99.90;;;;;;5065947;28;21166;-45
2022/05/18 02:39:33;;;;;;;8.70;5.88;;;15.40;99.90;;;;;;5057699;28;20545;-45
2022/05/18 02:41:59;;;;;;;12.60;7.10;;;15.40;99.90;;;;;;5057478;28;20044;-44
2022/05/18 02:44:24;;;;;;;12.68;6.93;;;15.30;99.90;;;;;;5067131;28;20111;-45
2022/05/18 02:46:50;;;;;;;10.57;6.75;;;15.30;99.90;;;;;;5063254;28;20044;-45
2022/05/18 02:49:16;;;;;;;10.13;7.82;;;15.20;99.90;;;;;;5059399;28;20033;-46
2022/05/18 02:51:41;;;;;;;13.10;7.38;;;15.20;99.90;;;;;;5065703;28;20037;-45
2022/05/18 02:56:05;;;;;;;12.65;7.32;;;15.10;99.90;;;;;;5062065;28;20048;-45
2022/05/18 02:56:54;;;;;;;11.30;6.97;;;15.20;99.90;;;;;;5056289;28;20118;-45
2022/05/18 02:59:20;;;;;;;;;;;15.10;99.90;;;;;;5061195;28;20112;-45
2022/05/18 03:01:46;;;;;;;11.43;7.35;;;15.10;99.90;;;;;;5059093;28;20377;-45
2022/05/18 03:04:13;;;;;;;7.75;7.05;;;15.00;99.90;;;;;;5068574;28;20290;-46
2022/05/18 03:06:38;;;;;;;;;;;14.90;99.90;;;;;;5053884;28;20045;-44
2022/05/18 03:09:05;;;;;;;8.75;7.25;;;14.90;99.90;;;;;;5069281;28;20388;-46
2022/05/18 03:11:30;;;;;;;11.13;7.53;;;14.90;99.90;;;;;;5056227;28;20265;-46
2022/05/18 03:13:56;;;;;;;9.57;7.43;;;14.90;99.90;;;;;;5057524;28;20036;-45
2022/05/18 03:16:24;;;;;;;12.57;7.25;;;14.80;99.90;;;;;;5066156;28;20045;-46
2022/05/18 03:18:50;;;;;;;9.82;7.32;;;14.80;99.90;;;;;;5055410;28;20498;-44
2022/05/18 03:24:00;;;;;;;16.80;8.15;;;14.80;99.90;;;;;;5065995;28;20044;-44
2022/05/18 03:26:27;;;;;;;16.20;7.72;;;14.80;99.90;;;;;;5054278;28;20048;-44
2022/05/18 03:28:57;;;;;;;14.13;8.10;;;14.80;99.90;;;;;;5063993;28;20025;-45
2022/05/18 03:31:25;;;;;;;11.50;8.57;;;14.80;99.90;;;;;;5055339;28;20043;-45
2022/05/18 03:33:51;;;;;;;7.90;7.20;;;14.80;99.90;;;;;;5053485;28;20405;-44
2022/05/18 03:36:18;;;;;;;14.50;8.05;;;14.80;99.90;;;;;;5062457;28;20497;-45
2022/05/18 03:38:45;;;;;;;9.77;8.27;;;14.80;99.90;;;;;;5050904;28;20041;-45
2022/05/18 03:41:12;;;;;;;11.05;8.23;;;14.80;99.90;;;;;;5058100;28;20047;-44
2022/05/18 03:43:37;;;;;;;11.38;8.45;;;14.80;99.90;;;;;;5068473;28;20051;-45
2022/05/18 03:46:04;;;;;;;12.80;8.85;;;14.80;99.90;;;;;;5067067;28;20088;-45
2022/05/18 03:48:31;;;;;;;10.20;8.82;;;14.80;99.90;;;;;;5052451;28;20045;-44
2022/05/18 03:50:58;;;;;;;10.88;8.13;;;14.70;99.90;;;;;;5050381;28;20037;-45
2022/05/18 03:53:25;;;;;;;11.50;9.10;;;14.80;99.90;;;;;;5052435;28;20100;-48
2022/05/18 03:55:51;;;;;;;10.45;9.32;;;14.70;99.90;;;;;;5053134;28;20067;-45
2022/05/18 03:58:17;;;;;;;11.05;8.35;;;14.80;99.90;;;;;;5070271;28;20498;-45
2022/05/18 04:00:45;;;;;;;12.55;8.52;;;14.80;99.90;;;;;;5055471;28;20037;-45
2022/05/18 04:03:12;;;;;;;11.35;8.55;;;14.80;99.90;;;;;;5059027;28;20155;-45
2022/05/18 04:05:40;;;;;;;10.43;7.85;;;14.80;99.90;;;;;;5069191;28;20036;-45
2022/05/18 04:08:06;;;;;;;12.35;8.15;;;14.80;99.90;;;;;;5061650;28;20033;-44
2022/05/18 04:10:32;;;;;;;13.15;7.97;;;14.80;99.90;;;;;;5050292;28;20048;-45
2022/05/18 04:12:58;;;;;;;10.50;8.23;;;14.80;99.90;;;;;;5056205;28;20039;-45
2022/05/18 04:15:24;;;;;;;8.70;7.80;;;14.70;99.90;;;;;;5065145;28;20040;-45
2022/05/18 04:17:49;;;;;;;9.20;7.82;;;14.70;99.90;;;;;;5061758;28;20032;-44
2022/05/18 04:20:18;;;;;;;9.70;8.43;;;14.70;99.90;;;;;;5052061;28;20055;-45
2022/05/18 04:22:45;;;;;;;15.68;10.88;;;14.70;99.90;;;;;;5059991;28;20107;-45
2022/05/18 04:25:12;;;;;;;16.20;10.80;;;14.70;99.90;;;;;;5048020;28;20116;-45
2022/05/18 04:27:38;;;;;;;13.88;10.40;;;14.70;99.90;;;;;;5053257;28;20048;-45
2022/05/18 04:30:05;;;;;;;13.98;10.23;;;14.70;99.90;;;;;;5069210;28;20033;-46
2022/05/18 04:32:30;;;;;;;12.18;9.82;;;14.70;99.90;;;;;;5051928;28;20055;-45
2022/05/18 04:34:56;;;;;;;14.57;9.60;;;14.70;99.90;;;;;;5067901;28;20036;-45
2022/05/18 04:37:21;;;;;;;10.43;9.43;;;14.70;99.90;;;;;;5060988;28;20036;-45
2022/05/18 04:39:47;;;;;;;11.50;8.95;;;14.70;99.90;;;;;;5067505;28;20044;-46
2022/05/18 04:42:14;;;;;;;12.35;10.20;;;14.70;99.90;;;;;;5060289;28;20127;-45
2022/05/18 04:44:40;;;;;;;13.60;10.40;;;14.70;99.90;;;;;;5057985;28;20036;-45
2022/05/18 04:47:06;;;;;;;11.20;9.77;;;14.70;99.90;;;;;;5061213;28;20033;-45
2022/05/18 04:49:32;;;;;;;14.23;10.57;;;14.80;99.90;;;;;;5068900;28;20043;-44
2022/05/18 04:51:59;;;;;;;18.13;12.00;;;14.90;99.90;;;;;;5062101;28;20347;-45
2022/05/18 04:54:25;;;;;;;15.65;11.18;;;14.90;99.90;;;;;;5064739;28;20032;-45
2022/05/18 04:56:50;;;;;;;12.98;10.80;;;15.00;99.90;;;;;;5060407;28;20055;-45
2022/05/18 04:59:16;;;;;;;15.82;11.27;;;15.10;99.90;;;;;;5069332;28;20444;-44
2022/05/18 05:01:43;;;;;;;19.60;11.57;;;15.20;99.90;;;;;;5060726;28;20115;-45
2022/05/18 05:04:09;;;;;;;14.25;11.80;;;15.30;99.90;;;;;;5067946;28;20041;-47
2022/05/18 05:06:43;;;;;;;15.75;11.00;;;15.40;99.90;;;;;;5054231;28;20051;-45
2022/05/18 05:09:09;;;;;;;19.17;11.52;;;15.50;99.90;;;;;;5069358;28;20535;-45
2022/05/18 05:11:35;;;;;;;20.05;13.27;;;15.60;99.90;;;;;;5072959;28;20063;-46
2022/05/18 05:14:00;;;;;;;15.43;13.07;;;15.70;99.90;;;;;;5056331;28;20504;-46
2022/05/18 05:16:28;;;;;;;12.88;11.45;;;15.80;99.90;;;;;;5061927;28;20101;-45
2022/05/18 05:18:54;;;;;;;17.77;13.10;;;15.90;99.90;;;;;;5059576;28;20045;-44
2022/05/18 05:21:20;;;;;;;13.15;11.23;;;16.00;99.90;;;;;;5057764;28;20029;-45
2022/05/18 05:23:46;;;;;;;13.23;11.68;;;16.10;99.90;;;;;;5056532;28;20079;-44
2022/05/18 05:26:13;;;;;;;16.40;11.23;;;16.20;99.90;;;;;;5061051;28;20044;-45
2022/05/18 05:28:39;;;;;;;13.38;10.57;;;16.40;99.90;;;;;;5065810;28;20044;-45
2022/05/18 05:31:07;;;;;;;12.07;10.98;;;16.50;99.90;;;;;;5056171;28;20059;-45
2022/05/18 05:33:33;;;;;;;17.27;11.18;;;16.60;99.90;;;;;;5070683;28;20437;-45
2022/05/18 05:36:00;;;;;;;;;;;16.80;99.90;;;;;;5064721;28;20075;-45
2022/05/18 05:38:27;;;;;;;17.35;12.15;;;16.90;99.90;;;;;;5057350;28;19928;-45
2022/05/18 05:40:52;;;;;;;19.23;11.40;;;17.00;99.90;;;;;;5059413;28;20040;-45
2022/05/18 05:43:18;;;;;;;14.23;10.98;;;17.10;99.90;;;;;;5068949;28;20085;-45
2022/05/18 05:45:59;;;;;;;13.27;9.88;;;17.30;99.90;;;;;;5057754;28;20037;-45
2022/05/18 05:48:26;;;;;;;11.18;9.68;;;17.40;99.90;;;;;;5056347;28;20045;-45
2022/05/18 05:50:52;;;;;;;16.02;10.68;;;17.50;99.90;;;;;;5052426;28;20044;-45
2022/05/18 05:53:17;;;;;;;10.60;8.85;;;17.70;99.90;;;;;;5050000;28;20029;-45
2022/05/18 05:55:43;;;;;;;9.23;8.10;;;17.80;99.90;;;;;;5063244;28;20037;-45
2022/05/18 05:58:08;;;;;;;9.43;8.45;;;17.90;99.90;;;;;;5057188;28;20333;-46
2022/05/18 06:00:34;;;;;;;12.82;8.88;;;18.10;99.90;;;;;;5072807;28;20040;-45
2022/05/18 06:03:00;;;;;;;12.18;8.70;;;18.20;99.90;;;;;;5062850;28;20040;-45
2022/05/18 06:05:25;;;;;;;19.30;8.40;;;18.30;99.90;;;;;;5071513;28;20573;-45
2022/05/18 06:07:51;;;;;;;10.00;8.32;;;18.50;99.90;;;;;;5059709;28;20101;-45
2022/05/18 06:10:17;;;;;;;20.48;8.55;;;18.60;99.90;;;;;;5061650;28;20493;-46
2022/05/18 06:12:42;;;;;;;11.43;8.45;;;18.70;99.90;;;;;;5057494;28;20512;-45
2022/05/18 06:15:08;;;;;;;13.10;7.18;;;18.80;99.90;;;;;;5058066;28;20040;-46
2022/05/18 06:17:35;;;;;;;14.13;7.68;;;18.90;99.90;;;;;;5067543;28;20554;-45
2022/05/18 06:20:00;;;;;;;10.07;7.60;;;19.00;99.90;;;;;;5070130;28;20469;-45
2022/05/18 06:22:26;;;;;;;12.07;8.07;;;19.10;99.90;;;;;;5051556;28;20037;-45
2022/05/18 06:24:52;;;;;;;10.20;7.53;;;19.20;99.90;;;;;;5051553;28;20723;-46
2022/05/18 06:27:21;;;;;;;12.10;7.20;;;19.30;99.90;;;;;;5052071;28;20579;-45
2022/05/18 06:29:50;;;;;;;9.70;7.15;;;19.40;99.90;;;;;;5050970;28;20060;-45
2022/05/18 06:32:17;;;;;;;7.40;6.78;;;19.50;99.90;;;;;;5053851;28;20035;-45
2022/05/18 06:34:46;;;;;;;11.82;7.22;;;19.50;99.90;;;;;;5071713;28;20128;-45
2022/05/18 06:37:13;;;;;;;12.95;7.75;;;19.60;99.90;;;;;;5070766;28;20043;-45
2022/05/18 06:39:38;;;;;;;8.93;7.70;;;19.70;99.90;;;;;;5063543;28;20044;-46
2022/05/18 06:42:04;;;;;;;11.23;7.45;;;19.70;99.90;;;;;;5054827;28;20452;-45
2022/05/18 06:44:30;;;;;;;;;;;19.80;99.90;;;;;;5065862;28;20103;-46
2022/05/18 06:46:59;;;;;;;12.43;7.13;;;19.90;99.90;;;;;;5063310;28;20051;-45
2022/05/18 06:49:29;;;;;;;9.38;7.85;;;20.00;99.90;;;;;;5063018;28;20509;-45
2022/05/18 06:51:56;;;;;;;11.00;7.47;;;20.10;99.90;;;;;;5056359;28;20366;-46
2022/05/18 06:54:21;;;;;;;13.98;7.90;;;20.20;99.90;;;;;;5064198;28;20032;-46
2022/05/18 06:56:47;;;;;;;9.18;7.20;;;20.30;99.90;;;;;;5054551;28;20512;-45
2022/05/18 06:59:13;;;;;;;9.98;7.32;;;20.30;99.90;;;;;;5065475;28;20045;-47
2022/05/18 07:01:40;;;;;;;9.20;8.32;;;20.40;99.90;;;;;;5051550;28;20055;-46
2022/05/18 07:04:06;;;;;;;11.38;7.60;;;20.50;99.90;;;;;;5052527;28;20043;-46
2022/05/18 07:06:36;;;;;;;11.95;6.85;;;20.60;99.90;;;;;;5055117;28;20036;-45
2022/05/18 07:09:05;;;;;;;9.88;7.65;;;20.70;99.90;;;;;;5053963;28;20028;-46
2022/05/18 07:11:30;;;;;;;12.85;6.95;;;20.80;99.90;;;;;;5070951;28;20033;-47
2022/05/18 07:13:58;;;;;;;8.48;7.03;;;20.90;99.90;;;;;;5057023;28;20048;-45
2022/05/18 07:16:26;;;;;;;13.77;7.60;;;20.90;99.90;;;;;;5070418;28;20044;-45
2022/05/18 07:18:53;;;;;;;13.40;7.07;;;21.00;99.90;;;;;;5057834;28;20040;-45
2022/05/18 07:21:19;;;;;;;12.05;6.78;;;21.10;99.90;;;;;;5070791;28;20032;-44
2022/05/18 07:23:45;;;;;;;13.23;6.90;;;21.20;99.90;;;;;;5060757;28;20073;-45
2022/05/18 07:26:11;;;;;;;;;;;21.30;99.90;;;;;;5062717;28;20064;-46
2022/05/18 07:28:37;;;;;;;7.68;6.97;;;21.40;99.90;;;;;;5054866;28;20401;-45
2022/05/18 07:31:02;;;;;;;;;;;21.40;99.90;;;;;;5058618;28;20025;-46
2022/05/18 07:33:28;;;;;;;9.48;6.82;;;21.60;99.90;;;;;;5070192;28;19948;-46
2022/05/18 07:35:54;;;;;;;11.23;7.13;;;21.70;99.90;;;;;;5052619;28;20039;-47
2022/05/18 07:38:22;;;;;;;;;;;21.80;99.90;;;;;;5056616;28;20040;-45
2022/05/18 07:40:48;;;;;;;8.35;6.70;;;21.90;99.90;;;;;;5051384;28;19916;-45
2022/05/18 07:43:14;;;;;;;8.32;6.63;;;21.90;99.90;;;;;;5066312;28;20082;-46
2022/05/18 07:45:40;;;;;;;8.02;6.00;;;22.10;99.90;;;;;;5059587;28;20028;-45
2022/05/18 07:48:05;;;;;;;;;;;22.20;99.90;;;;;;5051364;28;20029;-47
2022/05/18 07:50:31;;;;;;;12.68;7.80;;;22.30;99.90;;;;;;5068223;28;19921;-45
2022/05/18 07:52:59;;;;;;;;;;;22.40;99.90;;;;;;5068076;28;20041;-45
2022/05/18 07:55:26;;;;;;;8.63;6.55;;;22.40;99.90;;;;;;5057685;28;19916;-45
2022/05/18 07:57:52;;;;;;;8.05;6.78;;;22.60;99.90;;;;;;5061488;28;20115;-46
2022/05/18 08:00:19;;;;;;;10.60;7.88;;;22.60;99.30;;;;;;5061877;28;20037;-45
2022/05/18 08:02:44;;;;;;;11.70;7.95;;;22.70;99.90;;;;;;5053696;28;20033;-46
2022/05/18 08:05:10;;;;;;;;;;;22.80;99.00;;;;;;5061810;28;20036;-45
2022/05/18 08:07:36;;;;;;;7.65;6.15;;;22.90;98.60;;;;;;5059947;28;19970;-46
2022/05/18 08:15:31;;;;;;;7.90;6.20;;;23.20;97.70;;;;;;5055657;28;20044;-46
2022/05/18 08:17:56;;;;;;;;;;;23.20;98.30;;;;;;5058620;28;20431;-46
2022/05/18 08:20:23;;;;;;;9.18;5.45;;;23.40;97.90;;;;;;5056048;28;20341;-46
2022/05/18 08:22:49;;;;;;;6.72;6.03;;;23.40;98.40;;;;;;5056587;28;20082;-46
2022/05/18 08:25:14;;;;;;;;;;;23.50;98.00;;;;;;5062872;28;20094;-46
2022/05/18 08:27:46;;;;;;;6.47;4.93;;;23.60;98.20;;;;;;5057606;28;20301;-45
2022/05/18 08:30:17;;;;;;;7.20;4.70;;;23.70;97.60;;;;;;5061259;28;20051;-46
2022/05/18 08:32:43;;;;;;;5.10;3.90;;;23.80;97.20;;;;;;5054856;28;20473;-46
2022/05/18 08:35:09;;;;;;;;;;;23.90;97.20;;;;;;5048239;28;20068;-46
2022/05/18 08:37:39;;;;;;;5.90;4.45;;;23.90;96.50;;;;;;5049286;28;19917;-46
2022/05/18 08:40:10;;;;;;;6.18;4.30;;;24.00;96.10;;;;;;5057215;28;20408;-45
2022/05/18 08:42:35;;;;;;;9.20;5.10;;;24.10;95.90;;;;;;5049032;28;20510;-47
2022/05/18 08:45:02;;;;;;;9.32;4.57;;;24.10;95.20;;;;;;5055716;28;20075;-46
2022/05/18 08:48:06;;;;;;;8.05;4.65;;;24.20;95.50;;;;;;5064035;28;20040;-46
2022/05/18 08:50:33;;;;;;;7.35;3.90;;;24.20;94.80;;;;;;5047641;28;20434;-46
2022/05/18 08:53:10;;;;;;;7.72;5.30;;;24.30;95.50;;;;;;5048264;28;20041;-46
2022/05/18 08:56:11;;;;;;;6.45;4.28;;;24.40;96.10;;;;;;5065446;28;20386;-46
2022/05/18 08:58:45;;;;;;;11.10;5.00;;;24.40;94.80;;;;;;5068739;28;20040;-46
2022/05/18 09:01:21;;;;;;;8.00;5.15;;;24.50;94.80;;;;;;5059775;28;20051;-46
2022/05/18 09:04:01;;;;;;;9.38;4.97;;;24.50;95.30;;;;;;5062571;28;20044;-47
2022/05/18 09:06:32;;;;;;;7.43;4.22;;;24.60;95.20;;;;;;5065492;28;20407;-46
2022/05/18 09:11:54;;;;;;;6.53;4.18;;;24.90;95.80;;;;;;5048616;28;20033;-46
2022/05/18 09:14:22;;;;;;;7.00;4.22;;;25.00;94.90;;;;;;5048953;28;20033;-46
2022/05/18 09:17:33;;;;;;;9.13;5.32;;;25.10;94.60;;;;;;5049147;28;20044;-45
2022/05/18 09:20:03;;;;;;;6.93;4.40;;;25.20;95.00;;;;;;5067213;28;20076;-46
2022/05/18 09:23:00;;;;;;;7.85;5.38;;;25.20;94.40;;;;;;5067303;28;20044;-46
2022/05/18 09:25:37;;;;;;;6.13;5.47;;;25.20;94.20;;;;;;5058913;28;20055;-46
2022/05/18 09:28:17;;;;;;;8.27;5.43;;;25.30;94.40;;;;;;5068408;28;20325;-46
2022/05/18 09:30:48;;;;;;;5.82;4.93;;;25.40;93.20;;;;;;5053483;28;20025;-46
2022/05/18 09:33:39;;;;;;;6.53;4.93;;;25.30;92.90;;;;;;5051364;28;20076;-45
2022/05/18 09:36:24;;;;;;;8.85;5.32;;;25.30;92.20;;;;;;5069420;28;20386;-46
2022/05/18 09:39:03;;;;;;;6.30;4.25;;;25.30;92.20;;;;;;5071901;28;20036;-46
2022/05/18 09:41:34;;;;;;;8.57;4.65;;;25.30;92.10;;;;;;5070149;28;20508;-47
2022/05/18 09:44:22;;;;;;;4.80;3.95;;;25.40;92.70;;;;;;5071073;28;20047;-46
2022/05/18 09:46:48;;;;;;;6.28;4.05;;;25.40;92.50;;;;;;5051087;28;20048;-46
2022/05/18 09:49:27;;;;;;;6.72;4.80;;;25.50;91.90;;;;;;5067048;28;20104;-46
2022/05/18 09:51:54;;;;;;;5.13;4.60;;;25.60;92.20;;;;;;5054306;28;20108;-47
2022/05/18 09:54:20;;;;;;;7.63;3.38;;;25.70;92.10;;;;;;5047469;28;20041;-46
2022/05/18 09:57:06;;;;;;;9.45;4.60;;;25.80;91.40;;;;;;5066326;28;20044;-46
2022/05/18 09:59:46;;;;;;;12.93;4.78;;;25.90;90.40;;;;;;5051109;28;20047;-46
2022/05/18 10:07:51;;;;;;;7.05;4.85;;;26.00;91.20;;;;;;5051860;28;20036;-46
2022/05/18 10:10:23;;;;;;;7.45;4.18;;;26.10;91.60;;;;;;5053352;28;20087;-46
2022/05/18 10:13:00;;;;;;;6.85;4.22;;;26.20;90.50;;;;;;5055110;28;20032;-46
2022/05/18 10:15:37;;;;;;;6.78;3.45;;;26.30;90.40;;;;;;5053284;28;20540;-47
2022/05/18 10:18:43;;;;;;;9.57;5.05;;;26.30;90.60;;;;;;5071330;28;20044;-47
2022/05/18 10:21:28;;;;;;;8.45;5.05;;;26.40;89.60;;;;;;5062585;28;20093;-46
2022/05/18 10:24:02;;;;;;;4.40;3.85;;;26.40;90.50;;;;;;5051228;28;20052;-46
2022/05/18 10:26:33;;;;;;;8.40;4.75;;;26.50;89.30;;;;;;5059139;28;20505;-47
2022/05/18 10:29:04;;;;;;;5.22;4.65;;;26.50;88.60;;;;;;5061179;28;20111;-46
2022/05/18 10:31:42;;;;;;;9.85;5.07;;;26.60;89.00;;;;;;5057173;28;20544;-47
2022/05/18 10:34:28;;;;;;;6.47;4.95;;;26.50;88.00;;;;;;5061339;28;20060;-48
2022/05/18 10:36:59;;;;;;;7.07;5.45;;;26.50;89.30;;;;;;5058671;28;20052;-46
2022/05/18 10:39:30;;;;;;;7.72;5.80;;;26.50;89.20;;;;;;5058554;28;20051;-45
2022/05/18 10:41:56;;;;;;;7.47;4.47;;;26.50;89.50;;;;;;5060011;28;20490;-46
2022/05/18 10:44:27;;;;;;;5.38;3.55;;;26.50;88.80;;;;;;5069612;28;20039;-47
2022/05/18 10:46:53;;;;;;;13.05;5.45;;;26.60;89.60;;;;;;5064102;28;20474;-47
2022/05/18 10:49:34;;;;;;;6.68;5.22;;;26.70;91.00;;;;;;5064867;28;20074;-47
2022/05/18 10:52:15;;;;;;;8.70;4.85;;;26.90;90.30;;;;;;5067849;28;20504;-46
2022/05/18 10:54:56;;;;;;;6.10;3.97;;;27.00;89.90;;;;;;5058321;28;20043;-47
2022/05/18 10:57:29;;;;;;;9.63;3.65;;;27.10;89.70;;;;;;5067208;28;20046;-46
2022/05/18 11:00:05;;;;;;;5.60;2.35;;;27.20;88.90;;;;;;5070479;28;20120;-46
2022/05/18 11:02:59;;;;;;;6.25;3.13;;;27.20;87.20;;;;;;5062395;28;20486;-47
2022/05/18 11:06:02;;;;;;;5.30;3.30;;;27.40;86.60;;;;;;5049605;28;20498;-47
2022/05/18 11:08:31;;;;;;;5.82;3.45;;;27.40;86.30;;;;;;5054857;28;20107;-47
2022/05/18 11:11:12;;;;;;;10.05;5.00;;;27.20;83.10;;;;;;5054443;28;20036;-46
2022/05/18 11:13:59;;;;;;;7.28;3.83;;;27.10;85.10;;;;;;5052189;28;20040;-46
2022/05/18 11:16:54;;;;;;;5.85;4.25;;;27.00;85.60;;;;;;5068302;28;20059;-47
2022/05/18 11:19:45;;;;;;;7.78;4.80;;;27.10;85.80;;;;;;5023726;28;20052;-46
2022/05/18 11:22:32;;;;;;;17.02;5.30;;;27.20;84.30;;;;;;5068237;28;20115;-46
2022/05/18 11:25:22;;;;;;;6.20;4.88;;;27.20;82.40;;;;;;5057614;28;20168;-47
2022/05/18 11:27:57;;;;;;;5.93;4.05;;;27.20;82.70;;;;;;5060861;28;20056;-47
2022/05/18 11:31:05;;;;;;;9.10;5.33;;;27.20;83.60;;;;;;5053738;28;20175;-46
2022/05/18 11:33:51;;;;;;;;;;;27.30;84.50;;;;;;5065016;28;20068;-47
2022/05/18 11:36:41;;;;;;;9.02;6.10;;;27.30;84.70;;;;;;5056655;28;19920;-47
2022/05/18 11:39:24;;;;;;;8.98;5.88;;;27.40;84.90;;;;;;5050097;28;20041;-47
2022/05/18 11:42:12;;;;;;;6.57;3.97;;;27.40;83.70;;;;;;5068432;28;20051;-47
2022/05/18 11:44:49;;;;;;;8.52;4.95;;;27.50;83.60;;;;;;5064437;28;20539;-47
2022/05/18 11:47:29;;;;;;;7.78;6.40;;;27.60;85.00;;;;;;5056418;28;20040;-47
2022/05/18 11:50:37;;;;;;;5.65;4.38;;;27.70;84.20;;;;;;5067594;28;20425;-46
2022/05/18 11:53:15;;;;;;;7.15;4.90;;;27.70;83.70;;;;;;5067218;28;20097;-47
2022/05/18 11:55:55;;;;;;;6.78;4.80;;;27.80;83.80;;;;;;5068404;28;20097;-46
2022/05/18 11:59:09;;;;;;;7.90;4.22;;;27.90;86.40;;;;;;5049261;28;20036;-46
2022/05/18 12:01:48;;;;;;;4.80;2.53;;;27.90;83.40;;;;;;5054957;28;20086;-47
2022/05/18 12:04:32;;;;;;;5.13;3.45;;;27.80;79.40;;;;;;5061450;28;20049;-46
2022/05/18 12:07:37;;;;;;;8.63;5.43;;;27.80;76.90;;;;;;5063433;28;20047;-46
2022/05/18 12:10:25;;;;;;;6.72;4.40;;;27.80;79.30;;;;;;4983722;28;20038;-47
2022/05/18 12:13:20;;;;;;;11.30;5.13;;;27.80;80.50;;;;;;4979610;28;20480;-46
2022/05/18 12:15:56;;;;;;;10.00;6.28;;;27.90;78.80;;;;;;4980546;28;20051;-47
2022/05/18 12:18:35;;;;;;;5.47;4.03;;;27.90;80.00;;;;;;4969391;28;20090;-47
2022/05/18 12:21:24;;;;;;;6.20;4.50;;;28.00;81.30;;;;;;4984034;28;20431;-46
2022/05/18 12:23:56;;;;;;;6.00;2.75;;;28.10;81.50;;;;;;4981050;28;20050;-47
2022/05/18 12:26:23;;;;;;;4.93;3.38;;;28.10;79.70;;;;;;4985295;28;20093;-47
2022/05/18 12:28:51;;;;;;;6.55;2.10;;;28.20;80.40;;;;;;4985689;28;20042;-46
2022/05/18 12:31:17;;;;;;;7.85;2.60;;;28.20;74.00;;;;;;4985209;28;20042;-48
2022/05/18 12:34:05;;;;;;;7.95;2.95;;;28.20;76.90;;;;;;4986752;28;20453;-48
2022/05/18 12:36:52;;;;;;;5.10;3.13;;;28.10;76.20;;;;;;4978134;28;20558;-46
2022/05/18 12:39:32;;;;;;;3.63;2.67;;;27.90;76.60;;;;;;4978694;28;20539;-47
2022/05/18 12:42:01;;;;;;;6.20;2.95;;;27.80;75.30;;;;;;4988605;28;20089;-46
2022/05/18 12:44:37;;;;;;;3.28;2.97;;;27.80;76.70;;;;;;5030469;28;20053;-46
2022/05/18 12:47:27;;;;;;;4.47;3.00;;;27.90;78.90;;;;;;5058116;28;20558;-46
2022/05/18 12:50:15;;;;;;;7.15;3.38;;;28.00;76.60;;;;;;5051763;28;20120;-46
2022/05/18 12:52:58;;;;;;;4.00;3.58;;;28.10;75.40;;;;;;5053266;28;20039;-47
2022/05/18 12:56:02;;;;;;;5.30;2.75;;;28.00;74.40;;;;;;5050512;28;20100;-46
2022/05/18 12:58:37;;;;;;;5.80;2.85;;;28.00;74.50;;;;;;5051457;28;20454;-47
2022/05/18 13:01:06;;;;;;;5.28;3.35;;;28.10;74.70;;;;;;5059623;28;20051;-47
2022/05/18 13:03:50;;;;;;;4.65;3.28;;;28.20;74.40;;;;;;5049230;28;20081;-46
2022/05/18 13:06:29;;;;;;;4.93;3.50;;;28.20;74.50;;;;;;5049654;28;20037;-48
2022/05/18 13:09:14;;;;;;;9.32;3.35;;;28.10;75.30;;;;;;5066376;28;20112;-46
2022/05/18 13:11:45;;;;;;;9.07;3.42;;;28.00;75.00;;;;;;5057191;28;20548;-46
2022/05/18 13:14:30;;;;;;;5.82;4.07;;;28.10;75.60;;;;;;5059344;28;20407;-46
2022/05/18 13:16:59;;;;;;;4.30;3.08;;;28.00;76.30;;;;;;5058068;28;20061;-46
2022/05/18 13:19:27;;;;;;;11.20;5.53;;;28.00;74.90;;;;;;5056024;28;20535;-47
2022/05/18 13:22:05;;;;;;;7.25;3.35;;;28.00;77.40;;;;;;5069235;28;20044;-46
2022/05/18 13:24:52;;;;;;;5.60;4.30;;;28.10;76.70;;;;;;5066455;28;20500;-46